createdAt,value
2018-03-22T00:04:34.917Z,4.50
2018-03-22T00:14:57.059Z,6.00
2018-03-22T00:25:10.789Z,5.57
2018-03-22T00:35:31.127Z,6.53
2018-03-22T00:45:48.659Z,7.17
2018-03-22T00:56:00.597Z,8.13
2018-03-22T01:06:10.284Z,10.83
2018-03-22T01:16:20.816Z,8.93
2018-03-22T01:26:32.342Z,8.07
2018-03-22T01:36:53.785Z,8.73
2018-03-22T01:47:03.802Z,7.93
2018-03-22T01:57:15.613Z,9.20
2018-03-22T02:07:29.622Z,13.27
2018-03-22T02:17:46.347Z,10.60
2018-03-22T02:27:56.643Z,12.17
2018-03-22T02:38:11.359Z,10.20
2018-03-22T02:48:21.539Z,12.73
2018-03-22T02:58:33.900Z,11.87
2018-03-22T03:08:43.164Z,12.43
2018-03-22T03:18:58.991Z,9.53
2018-03-22T03:29:12.245Z,11.43
2018-03-22T03:39:21.511Z,13.60
2018-03-22T03:49:37.161Z,10.17
2018-03-22T03:59:46.392Z,10.70
2018-03-22T04:09:58.481Z,11.00
2018-03-22T04:20:15.289Z,9.80
2018-03-22T04:30:25.134Z,8.93
2018-03-22T04:40:35.525Z,9.93
2018-03-22T04:50:46.397Z,8.57
2018-03-22T05:01:03.330Z,9.03
2018-03-22T05:11:13.818Z,8.77
2018-03-22T05:21:26.222Z,11.83
2018-03-22T05:41:53.055Z,13.10
2018-03-22T05:52:04.021Z,9.20
2018-03-22T06:02:22.011Z,9.43
2018-03-22T06:12:36.922Z,9.23
2018-03-22T06:22:52.339Z,11.77
2018-03-22T06:33:04.513Z,9.63
2018-03-22T06:43:13.971Z,8.97
2018-03-22T06:53:24.566Z,9.63
2018-03-22T07:03:37.243Z,10.17
2018-03-22T07:13:46.711Z,11.37
2018-03-22T07:24:10.121Z,10.10
2018-03-22T07:34:23.152Z,9.73
2018-03-22T07:44:41.449Z,9.93
2018-03-22T07:54:55.802Z,9.50
2018-03-22T08:05:15.699Z,11.20
2018-03-22T08:15:26.896Z,9.00
2018-03-22T08:25:48.587Z,11.40
2018-03-22T08:36:05.589Z,11.33
2018-03-22T08:46:16.646Z,9.43
2018-03-22T08:56:30.361Z,11.57
2018-03-22T09:06:40.265Z,15.03
2018-03-22T09:16:55.134Z,16.77
2018-03-22T09:27:12.040Z,21.77
2018-03-22T09:37:26.038Z,25.37
2018-03-22T09:47:40.207Z,26.20
2018-03-22T09:57:51.899Z,28.47
2018-03-22T10:08:03.579Z,20.47
2018-03-22T10:18:17.649Z,16.57
2018-03-22T10:28:31.882Z,17.90
2018-03-22T10:38:43.252Z,17.10
2018-03-22T10:48:57.057Z,16.83
2018-03-22T10:59:14.077Z,14.13
2018-03-22T11:09:28.276Z,14.80
2018-03-22T11:19:38.286Z,14.73
2018-03-22T11:29:53.510Z,12.83
2018-03-22T11:50:23.724Z,13.63
2018-03-22T12:00:34.631Z,13.13
2018-03-22T12:10:52.179Z,12.40
2018-03-22T12:21:01.893Z,11.57
2018-03-22T12:31:19.992Z,11.23
2018-03-22T12:41:33.463Z,9.30
2018-03-22T12:51:47.171Z,9.80
2018-03-22T13:02:04.569Z,10.23
2018-03-22T13:12:22.386Z,8.90
2018-03-22T13:22:42.980Z,9.10
2018-03-22T13:32:54.898Z,10.00
2018-03-22T13:43:07.571Z,8.87
2018-03-22T13:53:22.052Z,10.07
2018-03-22T14:03:32.841Z,12.10
2018-03-22T14:13:43.752Z,11.27
2018-03-22T14:23:54.861Z,12.93
2018-03-22T14:34:07.191Z,13.53
2018-03-22T14:44:21.100Z,13.67
2018-03-22T14:54:40.510Z,12.43
2018-03-22T15:04:50.971Z,13.30
2018-03-22T15:15:01.972Z,12.43
2018-03-22T15:25:11.827Z,10.80
2018-03-22T15:35:23.475Z,11.43
2018-03-22T15:45:38.301Z,13.57
2018-03-22T15:55:53.823Z,17.77
2018-03-22T16:06:04.826Z,16.13
2018-03-22T16:16:13.875Z,16.23
2018-03-22T16:26:21.912Z,13.77
2018-03-22T16:36:35.364Z,13.80
2018-03-22T16:46:46.512Z,12.63
2018-03-22T16:56:55.580Z,11.77
2018-03-22T17:17:24.430Z,11.33
2018-03-22T17:27:36.066Z,12.83
2018-03-22T17:37:45.675Z,11.03
2018-03-22T17:47:54.436Z,11.20
2018-03-22T17:58:04.347Z,10.73
2018-03-22T18:08:18.376Z,10.97
2018-03-22T18:18:34.734Z,9.80
2018-03-22T18:28:47.010Z,11.20
2018-03-22T18:38:55.473Z,11.47
2018-03-22T18:49:05.668Z,15.97
2018-03-22T18:59:14.208Z,9.53
2018-03-22T19:09:22.990Z,9.10
2018-03-22T19:19:36.279Z,8.63
2018-03-22T19:29:47.006Z,9.63
2018-03-22T19:39:55.883Z,8.97
2018-03-22T19:50:04.860Z,9.07
2018-03-22T20:00:13.500Z,9.80
2018-03-22T20:10:22.591Z,9.50
2018-03-22T20:20:45.949Z,10.50
2018-03-22T20:31:00.227Z,10.60
2018-03-22T20:41:11.095Z,10.63
2018-03-22T20:51:22.582Z,15.47
2018-03-22T21:01:36.060Z,10.43
2018-03-22T21:11:44.749Z,12.10
2018-03-22T21:21:52.358Z,11.03
2018-03-22T21:42:25.491Z,13.20
2018-03-22T21:52:50.302Z,13.20
2018-03-22T22:03:07.909Z,13.97
2018-03-22T22:13:19.526Z,12.63
2018-03-22T22:23:30.136Z,13.00
2018-03-22T22:33:41.152Z,12.60
2018-03-22T22:43:50.169Z,12.30
2018-03-22T22:54:00.678Z,11.80
2018-03-22T23:04:10.326Z,13.57
2018-03-22T23:14:19.924Z,13.17
2018-03-22T23:24:28.508Z,12.33
2018-03-22T23:34:40.560Z,13.20
2018-03-22T23:44:50.045Z,12.60
2018-03-22T23:54:59.177Z,10.73
